sensor_id;sensor_type;location;lat;lon;timestamp;P1;durP1;ratioP1;P2;durP2;ratioP2
11847;SDS011;5983;49.966;8.052;2022-12-18T00:01:22;29.80;;;13.97;;
11847;SDS011;5983;49.966;8.052;2022-12-18T00:03:52;32.07;;;14.17;;
11847;SDS011;5983;49.966;8.052;2022-12-18T00:06:21;30.93;;;14.33;;
11847;SDS011;5983;49.966;8.052;2022-12-18T00:08:50;32.53;;;14.43;;
11847;SDS011;5983;49.966;8.052;2022-12-18T00:11:18;34.03;;;14.37;;
11847;SDS011;5983;49.966;8.052;2022-12-18T00:13:48;28.80;;;13.20;;
11847;SDS011;5983;49.966;8.052;2022-12-18T00:16:16;34.83;;;14.53;;
11847;SDS011;5983;49.966;8.052;2022-12-18T00:18:48;34.30;;;15.10;;
11847;SDS011;5983;49.966;8.052;2022-12-18T00:21:17;31.57;;;14.23;;
11847;SDS011;5983;49.966;8.052;2022-12-18T00:23:45;35.47;;;14.90;;
11847;SDS011;5983;49.966;8.052;2022-12-18T00:26:16;31.17;;;14.10;;
11847;SDS011;5983;49.966;8.052;2022-12-18T00:28:48;26.43;;;14.07;;
11847;SDS011;5983;49.966;8.052;2022-12-18T00:31:17;28.50;;;14.17;;
11847;SDS011;5983;49.966;8.052;2022-12-18T00:33:48;26.20;;;13.00;;
11847;SDS011;5983;49.966;8.052;2022-12-18T00:36:16;31.63;;;13.77;;
11847;SDS011;5983;49.966;8.052;2022-12-18T00:38:46;37.00;;;14.43;;
11847;SDS011;5983;49.966;8.052;2022-12-18T00:41:14;30.40;;;13.97;;
11847;SDS011;5983;49.966;8.052;2022-12-18T00:44:05;32.40;;;15.13;;
11847;SDS011;5983;49.966;8.052;2022-12-18T00:46:34;34.43;;;15.47;;
11847;SDS011;5983;49.966;8.052;2022-12-18T00:49:02;36.33;;;15.17;;
11847;SDS011;5983;49.966;8.052;2022-12-18T00:51:30;29.43;;;14.73;;
11847;SDS011;5983;49.966;8.052;2022-12-18T00:53:57;33.37;;;13.83;;
11847;SDS011;5983;49.966;8.052;2022-12-18T00:56:24;31.40;;;14.43;;
11847;SDS011;5983;49.966;8.052;2022-12-18T00:58:51;33.27;;;15.27;;
11847;SDS011;5983;49.966;8.052;2022-12-18T01:01:18;31.83;;;15.50;;
11847;SDS011;5983;49.966;8.052;2022-12-18T01:03:45;32.67;;;15.77;;
11847;SDS011;5983;49.966;8.052;2022-12-18T01:06:14;30.73;;;14.20;;
11847;SDS011;5983;49.966;8.052;2022-12-18T01:08:42;29.93;;;13.97;;
11847;SDS011;5983;49.966;8.052;2022-12-18T01:11:10;30.20;;;14.17;;
11847;SDS011;5983;49.966;8.052;2022-12-18T01:13:40;25.97;;;13.83;;
11847;SDS011;5983;49.966;8.052;2022-12-18T01:16:08;37.90;;;15.30;;
11847;SDS011;5983;49.966;8.052;2022-12-18T01:18:37;31.47;;;14.43;;
11847;SDS011;5983;49.966;8.052;2022-12-18T01:21:05;30.70;;;14.90;;
11847;SDS011;5983;49.966;8.052;2022-12-18T01:23:35;32.83;;;13.93;;
11847;SDS011;5983;49.966;8.052;2022-12-18T01:26:05;30.83;;;14.33;;
11847;SDS011;5983;49.966;8.052;2022-12-18T01:28:35;36.63;;;15.93;;
11847;SDS011;5983;49.966;8.052;2022-12-18T01:31:09;30.87;;;14.93;;
11847;SDS011;5983;49.966;8.052;2022-12-18T01:33:41;29.17;;;14.07;;
11847;SDS011;5983;49.966;8.052;2022-12-18T01:36:14;32.10;;;13.90;;
11847;SDS011;5983;49.966;8.052;2022-12-18T01:38:44;31.93;;;14.77;;
11847;SDS011;5983;49.966;8.052;2022-12-18T01:41:12;32.97;;;14.13;;
11847;SDS011;5983;49.966;8.052;2022-12-18T01:43:41;30.17;;;14.33;;
11847;SDS011;5983;49.966;8.052;2022-12-18T01:46:14;31.23;;;13.60;;
11847;SDS011;5983;49.966;8.052;2022-12-18T01:48:42;31.50;;;14.97;;
11847;SDS011;5983;49.966;8.052;2022-12-18T01:51:11;40.13;;;15.87;;
11847;SDS011;5983;49.966;8.052;2022-12-18T01:53:39;41.00;;;17.50;;
11847;SDS011;5983;49.966;8.052;2022-12-18T01:56:12;38.20;;;15.93;;
11847;SDS011;5983;49.966;8.052;2022-12-18T01:58:43;30.63;;;14.67;;
11847;SDS011;5983;49.966;8.052;2022-12-18T02:01:20;35.30;;;15.93;;
11847;SDS011;5983;49.966;8.052;2022-12-18T02:03:48;42.13;;;16.70;;
11847;SDS011;5983;49.966;8.052;2022-12-18T02:06:15;36.70;;;15.07;;
11847;SDS011;5983;49.966;8.052;2022-12-18T02:08:50;35.07;;;15.40;;
11847;SDS011;5983;49.966;8.052;2022-12-18T02:11:32;39.60;;;15.37;;
11847;SDS011;5983;49.966;8.052;2022-12-18T02:14:16;37.60;;;16.13;;
11847;SDS011;5983;49.966;8.052;2022-12-18T02:16:55;35.33;;;15.80;;
11847;SDS011;5983;49.966;8.052;2022-12-18T02:19:39;37.27;;;15.20;;
11847;SDS011;5983;49.966;8.052;2022-12-18T02:22:26;39.40;;;14.53;;
11847;SDS011;5983;49.966;8.052;2022-12-18T02:25:12;29.20;;;14.53;;
11847;SDS011;5983;49.966;8.052;2022-12-18T02:27:53;37.33;;;14.00;;
11847;SDS011;5983;49.966;8.052;2022-12-18T02:30:25;32.03;;;15.17;;
11847;SDS011;5983;49.966;8.052;2022-12-18T02:32:57;28.40;;;13.03;;
11847;SDS011;5983;49.966;8.052;2022-12-18T02:35:29;25.70;;;13.67;;
11847;SDS011;5983;49.966;8.052;2022-12-18T02:37:57;31.50;;;13.53;;
11847;SDS011;5983;49.966;8.052;2022-12-18T02:40:26;28.83;;;13.47;;
11847;SDS011;5983;49.966;8.052;2022-12-18T02:42:56;30.17;;;14.30;;
11847;SDS011;5983;49.966;8.052;2022-12-18T02:45:33;32.23;;;13.40;;
11847;SDS011;5983;49.966;8.052;2022-12-18T02:47:59;26.50;;;13.07;;
11847;SDS011;5983;49.966;8.052;2022-12-18T02:50:36;31.80;;;13.33;;
11847;SDS011;5983;49.966;8.052;2022-12-18T02:53:14;28.83;;;13.70;;
11847;SDS011;5983;49.966;8.052;2022-12-18T02:55:52;28.60;;;13.67;;
11847;SDS011;5983;49.966;8.052;2022-12-18T02:58:35;26.53;;;12.50;;
11847;SDS011;5983;49.966;8.052;2022-12-18T03:01:14;33.77;;;13.77;;
11847;SDS011;5983;49.966;8.052;2022-12-18T03:03:49;29.40;;;12.13;;
11847;SDS011;5983;49.966;8.052;2022-12-18T03:06:23;30.63;;;13.07;;
11847;SDS011;5983;49.966;8.052;2022-12-18T03:08:56;27.67;;;12.70;;
11847;SDS011;5983;49.966;8.052;2022-12-18T03:11:26;35.07;;;14.93;;
11847;SDS011;5983;49.966;8.052;2022-12-18T03:14:19;29.57;;;12.03;;
11847;SDS011;5983;49.966;8.052;2022-12-18T03:16:49;31.93;;;13.80;;
11847;SDS011;5983;49.966;8.052;2022-12-18T03:19:21;29.27;;;12.47;;
11847;SDS011;5983;49.966;8.052;2022-12-18T03:21:53;36.13;;;13.20;;
11847;SDS011;5983;49.966;8.052;2022-12-18T03:24:24;35.67;;;15.03;;
11847;SDS011;5983;49.966;8.052;2022-12-18T03:26:58;35.27;;;13.73;;
11847;SDS011;5983;49.966;8.052;2022-12-18T03:29:31;35.43;;;14.10;;
11847;SDS011;5983;49.966;8.052;2022-12-18T03:32:04;35.00;;;13.87;;
11847;SDS011;5983;49.966;8.052;2022-12-18T03:34:37;30.97;;;14.03;;
11847;SDS011;5983;49.966;8.052;2022-12-18T03:37:07;26.70;;;13.30;;
11847;SDS011;5983;49.966;8.052;2022-12-18T03:39:34;32.83;;;13.90;;
11847;SDS011;5983;49.966;8.052;2022-12-18T03:42:04;34.13;;;13.47;;
11847;SDS011;5983;49.966;8.052;2022-12-18T03:44:42;32.10;;;13.90;;
11847;SDS011;5983;49.966;8.052;2022-12-18T03:47:18;36.47;;;12.17;;
11847;SDS011;5983;49.966;8.052;2022-12-18T03:49:55;31.53;;;13.57;;
11847;SDS011;5983;49.966;8.052;2022-12-18T03:52:35;30.70;;;13.20;;
11847;SDS011;5983;49.966;8.052;2022-12-18T03:55:07;30.40;;;13.33;;
11847;SDS011;5983;49.966;8.052;2022-12-18T03:57:36;30.20;;;13.30;;
11847;SDS011;5983;49.966;8.052;2022-12-18T04:00:07;27.00;;;12.20;;
11847;SDS011;5983;49.966;8.052;2022-12-18T04:02:41;24.97;;;10.63;;
11847;SDS011;5983;49.966;8.052;2022-12-18T04:05:12;25.90;;;10.73;;
11847;SDS011;5983;49.966;8.052;2022-12-18T04:07:41;25.00;;;11.47;;
11847;SDS011;5983;49.966;8.052;2022-12-18T04:10:10;24.00;;;11.57;;
11847;SDS011;5983;49.966;8.052;2022-12-18T04:12:40;24.23;;;10.87;;
11847;SDS011;5983;49.966;8.052;2022-12-18T04:15:09;23.97;;;10.57;;
11847;SDS011;5983;49.966;8.052;2022-12-18T04:17:38;29.70;;;11.63;;
11847;SDS011;5983;49.966;8.052;2022-12-18T04:20:13;22.13;;;10.03;;
11847;SDS011;5983;49.966;8.052;2022-12-18T04:22:40;23.70;;;10.33;;
11847;SDS011;5983;49.966;8.052;2022-12-18T04:25:07;25.13;;;10.67;;
11847;SDS011;5983;49.966;8.052;2022-12-18T04:27:34;25.90;;;10.57;;
11847;SDS011;5983;49.966;8.052;2022-12-18T04:30:01;27.67;;;11.23;;
11847;SDS011;5983;49.966;8.052;2022-12-18T04:32:31;20.97;;;10.07;;
11847;SDS011;5983;49.966;8.052;2022-12-18T04:34:59;22.20;;;10.47;;
11847;SDS011;5983;49.966;8.052;2022-12-18T04:37:26;22.03;;;10.23;;
11847;SDS011;5983;49.966;8.052;2022-12-18T04:39:55;21.17;;;10.67;;
11847;SDS011;5983;49.966;8.052;2022-12-18T04:42:22;22.80;;;10.40;;
11847;SDS011;5983;49.966;8.052;2022-12-18T04:44:48;20.27;;;10.57;;
11847;SDS011;5983;49.966;8.052;2022-12-18T04:47:15;23.00;;;9.80;;
11847;SDS011;5983;49.966;8.052;2022-12-18T04:49:43;26.17;;;11.20;;
11847;SDS011;5983;49.966;8.052;2022-12-18T04:52:11;26.50;;;11.57;;
11847;SDS011;5983;49.966;8.052;2022-12-18T04:54:37;28.17;;;10.23;;
11847;SDS011;5983;49.966;8.052;2022-12-18T04:57:04;23.80;;;11.10;;
11847;SDS011;5983;49.966;8.052;2022-12-18T04:59:31;27.20;;;11.50;;
11847;SDS011;5983;49.966;8.052;2022-12-18T05:01:58;34.53;;;12.97;;
11847;SDS011;5983;49.966;8.052;2022-12-18T05:04:25;32.07;;;13.07;;
11847;SDS011;5983;49.966;8.052;2022-12-18T05:06:53;36.57;;;15.17;;
11847;SDS011;5983;49.966;8.052;2022-12-18T05:09:20;29.80;;;12.50;;
11847;SDS011;5983;49.966;8.052;2022-12-18T05:11:47;36.77;;;13.33;;
11847;SDS011;5983;49.966;8.052;2022-12-18T05:14:14;34.57;;;13.67;;
11847;SDS011;5983;49.966;8.052;2022-12-18T05:16:41;31.93;;;12.67;;
11847;SDS011;5983;49.966;8.052;2022-12-18T05:19:08;32.30;;;14.17;;
11847;SDS011;5983;49.966;8.052;2022-12-18T05:21:35;29.63;;;12.10;;
11847;SDS011;5983;49.966;8.052;2022-12-18T05:24:04;34.70;;;14.53;;
11847;SDS011;5983;49.966;8.052;2022-12-18T05:26:31;33.10;;;12.77;;
11847;SDS011;5983;49.966;8.052;2022-12-18T05:28:58;33.37;;;13.47;;
11847;SDS011;5983;49.966;8.052;2022-12-18T05:31:25;28.70;;;12.93;;
11847;SDS011;5983;49.966;8.052;2022-12-18T05:33:52;34.33;;;14.20;;
11847;SDS011;5983;49.966;8.052;2022-12-18T05:36:19;36.03;;;13.77;;
11847;SDS011;5983;49.966;8.052;2022-12-18T05:38:45;35.17;;;14.40;;
11847;SDS011;5983;49.966;8.052;2022-12-18T05:41:14;37.87;;;15.43;;
11847;SDS011;5983;49.966;8.052;2022-12-18T05:43:41;44.00;;;15.93;;
11847;SDS011;5983;49.966;8.052;2022-12-18T05:46:10;34.70;;;14.30;;
11847;SDS011;5983;49.966;8.052;2022-12-18T05:48:40;37.47;;;14.87;;
11847;SDS011;5983;49.966;8.052;2022-12-18T05:51:08;37.97;;;13.57;;
11847;SDS011;5983;49.966;8.052;2022-12-18T05:53:39;36.60;;;15.13;;
11847;SDS011;5983;49.966;8.052;2022-12-18T05:56:07;32.50;;;13.93;;
11847;SDS011;5983;49.966;8.052;2022-12-18T05:58:38;35.87;;;13.97;;
11847;SDS011;5983;49.966;8.052;2022-12-18T06:01:06;40.27;;;16.60;;
11847;SDS011;5983;49.966;8.052;2022-12-18T06:03:37;38.70;;;15.20;;
11847;SDS011;5983;49.966;8.052;2022-12-18T06:06:12;39.10;;;15.87;;
11847;SDS011;5983;49.966;8.052;2022-12-18T06:08:40;40.53;;;16.30;;
11847;SDS011;5983;49.966;8.052;2022-12-18T06:11:07;35.40;;;14.50;;
11847;SDS011;5983;49.966;8.052;2022-12-18T06:13:34;38.67;;;16.20;;
11847;SDS011;5983;49.966;8.052;2022-12-18T06:16:03;34.70;;;14.33;;
11847;SDS011;5983;49.966;8.052;2022-12-18T06:18:31;39.07;;;15.47;;
11847;SDS011;5983;49.966;8.052;2022-12-18T06:21:02;39.80;;;13.30;;
11847;SDS011;5983;49.966;8.052;2022-12-18T06:23:29;41.53;;;15.10;;
11847;SDS011;5983;49.966;8.052;2022-12-18T06:25:56;37.77;;;14.17;;
11847;SDS011;5983;49.966;8.052;2022-12-18T06:28:24;33.03;;;14.03;;
11847;SDS011;5983;49.966;8.052;2022-12-18T06:30:51;36.13;;;15.20;;
11847;SDS011;5983;49.966;8.052;2022-12-18T06:33:19;33.63;;;13.33;;
11847;SDS011;5983;49.966;8.052;2022-12-18T06:35:46;33.73;;;12.93;;
11847;SDS011;5983;49.966;8.052;2022-12-18T06:38:13;34.73;;;15.13;;
11847;SDS011;5983;49.966;8.052;2022-12-18T06:40:40;44.87;;;16.13;;
11847;SDS011;5983;49.966;8.052;2022-12-18T06:43:07;37.23;;;15.30;;
11847;SDS011;5983;49.966;8.052;2022-12-18T06:45:33;33.17;;;13.73;;
11847;SDS011;5983;49.966;8.052;2022-12-18T06:48:00;33.57;;;13.23;;
11847;SDS011;5983;49.966;8.052;2022-12-18T06:50:29;26.13;;;12.93;;
11847;SDS011;5983;49.966;8.052;2022-12-18T06:52:55;32.10;;;11.93;;
11847;SDS011;5983;49.966;8.052;2022-12-18T06:55:22;26.80;;;12.87;;
11847;SDS011;5983;49.966;8.052;2022-12-18T06:57:49;25.93;;;11.30;;
11847;SDS011;5983;49.966;8.052;2022-12-18T07:00:17;26.07;;;10.90;;
11847;SDS011;5983;49.966;8.052;2022-12-18T07:02:44;26.13;;;11.37;;
11847;SDS011;5983;49.966;8.052;2022-12-18T07:05:11;25.33;;;10.13;;
11847;SDS011;5983;49.966;8.052;2022-12-18T07:07:39;22.93;;;11.60;;
11847;SDS011;5983;49.966;8.052;2022-12-18T07:10:06;28.47;;;11.93;;
11847;SDS011;5983;49.966;8.052;2022-12-18T07:12:34;28.80;;;12.77;;
11847;SDS011;5983;49.966;8.052;2022-12-18T07:15:02;34.27;;;12.63;;
11847;SDS011;5983;49.966;8.052;2022-12-18T07:17:29;28.13;;;11.77;;
11847;SDS011;5983;49.966;8.052;2022-12-18T07:19:56;29.27;;;11.40;;
11847;SDS011;5983;49.966;8.052;2022-12-18T07:22:24;25.20;;;10.93;;
11847;SDS011;5983;49.966;8.052;2022-12-18T07:24:53;26.40;;;10.00;;
11847;SDS011;5983;49.966;8.052;2022-12-18T07:27:20;23.23;;;10.73;;
11847;SDS011;5983;49.966;8.052;2022-12-18T07:29:47;24.03;;;10.83;;
11847;SDS011;5983;49.966;8.052;2022-12-18T07:32:14;25.03;;;11.43;;
11847;SDS011;5983;49.966;8.052;2022-12-18T07:34:41;23.93;;;10.77;;
11847;SDS011;5983;49.966;8.052;2022-12-18T07:37:08;28.70;;;11.73;;
11847;SDS011;5983;49.966;8.052;2022-12-18T07:39:35;25.90;;;10.27;;
11847;SDS011;5983;49.966;8.052;2022-12-18T07:42:04;22.33;;;10.73;;
11847;SDS011;5983;49.966;8.052;2022-12-18T07:44:48;22.23;;;9.73;;
11847;SDS011;5983;49.966;8.052;2022-12-18T07:47:15;25.70;;;10.20;;
11847;SDS011;5983;49.966;8.052;2022-12-18T07:49:42;23.50;;;9.73;;
11847;SDS011;5983;49.966;8.052;2022-12-18T07:52:09;23.17;;;11.30;;
11847;SDS011;5983;49.966;8.052;2022-12-18T07:54:37;25.70;;;10.53;;
11847;SDS011;5983;49.966;8.052;2022-12-18T07:57:06;30.57;;;15.03;;
11847;SDS011;5983;49.966;8.052;2022-12-18T07:59:33;36.07;;;17.37;;
11847;SDS011;5983;49.966;8.052;2022-12-18T08:02:01;27.43;;;12.67;;
11847;SDS011;5983;49.966;8.052;2022-12-18T08:04:28;23.60;;;11.87;;
11847;SDS011;5983;49.966;8.052;2022-12-18T08:06:55;21.57;;;10.90;;
11847;SDS011;5983;49.966;8.052;2022-12-18T08:09:21;24.03;;;12.13;;
11847;SDS011;5983;49.966;8.052;2022-12-18T08:11:48;20.27;;;10.13;;
11847;SDS011;5983;49.966;8.052;2022-12-18T08:14:16;20.83;;;10.90;;
11847;SDS011;5983;49.966;8.052;2022-12-18T08:16:43;24.27;;;11.57;;
11847;SDS011;5983;49.966;8.052;2022-12-18T08:19:10;20.27;;;10.73;;
11847;SDS011;5983;49.966;8.052;2022-12-18T08:21:37;19.67;;;9.93;;
11847;SDS011;5983;49.966;8.052;2022-12-18T08:24:04;21.33;;;12.00;;
11847;SDS011;5983;49.966;8.052;2022-12-18T08:26:32;24.30;;;12.30;;
11847;SDS011;5983;49.966;8.052;2022-12-18T08:28:59;25.57;;;11.73;;
11847;SDS011;5983;49.966;8.052;2022-12-18T08:31:29;22.70;;;11.63;;
11847;SDS011;5983;49.966;8.052;2022-12-18T08:33:57;21.70;;;11.77;;
11847;SDS011;5983;49.966;8.052;2022-12-18T08:36:24;20.57;;;10.83;;
11847;SDS011;5983;49.966;8.052;2022-12-18T08:38:51;21.77;;;11.27;;
11847;SDS011;5983;49.966;8.052;2022-12-18T08:41:19;22.43;;;11.33;;
11847;SDS011;5983;49.966;8.052;2022-12-18T08:43:46;27.90;;;13.63;;
11847;SDS011;5983;49.966;8.052;2022-12-18T08:46:34;25.33;;;14.33;;
11847;SDS011;5983;49.966;8.052;2022-12-18T08:49:04;27.17;;;14.87;;
11847;SDS011;5983;49.966;8.052;2022-12-18T08:51:32;32.33;;;16.60;;
11847;SDS011;5983;49.966;8.052;2022-12-18T08:54:00;24.83;;;13.87;;
11847;SDS011;5983;49.966;8.052;2022-12-18T08:56:27;32.17;;;17.03;;
11847;SDS011;5983;49.966;8.052;2022-12-18T08:58:55;34.43;;;19.00;;
11847;SDS011;5983;49.966;8.052;2022-12-18T09:01:22;29.40;;;17.27;;
11847;SDS011;5983;49.966;8.052;2022-12-18T09:03:51;29.20;;;15.00;;
11847;SDS011;5983;49.966;8.052;2022-12-18T09:06:20;31.87;;;16.80;;
11847;SDS011;5983;49.966;8.052;2022-12-18T09:08:48;33.87;;;18.80;;
11847;SDS011;5983;49.966;8.052;2022-12-18T09:11:19;34.83;;;18.17;;
11847;SDS011;5983;49.966;8.052;2022-12-18T09:13:48;39.80;;;24.03;;
11847;SDS011;5983;49.966;8.052;2022-12-18T09:16:15;96.43;;;43.30;;
11847;SDS011;5983;49.966;8.052;2022-12-18T09:18:43;98.07;;;44.40;;
11847;SDS011;5983;49.966;8.052;2022-12-18T09:21:12;51.20;;;26.83;;
11847;SDS011;5983;49.966;8.052;2022-12-18T09:23:41;34.27;;;19.00;;
11847;SDS011;5983;49.966;8.052;2022-12-18T09:26:08;31.00;;;17.80;;
11847;SDS011;5983;49.966;8.052;2022-12-18T09:28:35;29.20;;;15.93;;
11847;SDS011;5983;49.966;8.052;2022-12-18T09:31:03;29.20;;;15.40;;
11847;SDS011;5983;49.966;8.052;2022-12-18T09:33:33;25.87;;;15.07;;
11847;SDS011;5983;49.966;8.052;2022-12-18T09:36:01;25.20;;;14.23;;
11847;SDS011;5983;49.966;8.052;2022-12-18T09:38:31;22.97;;;13.03;;
11847;SDS011;5983;49.966;8.052;2022-12-18T09:41:00;26.07;;;13.73;;
11847;SDS011;5983;49.966;8.052;2022-12-18T09:43:40;22.37;;;13.40;;
11847;SDS011;5983;49.966;8.052;2022-12-18T09:46:15;24.00;;;13.27;;
11847;SDS011;5983;49.966;8.052;2022-12-18T09:48:50;25.40;;;14.17;;
11847;SDS011;5983;49.966;8.052;2022-12-18T09:51:24;23.33;;;13.43;;
11847;SDS011;5983;49.966;8.052;2022-12-18T09:53:58;26.17;;;13.80;;
11847;SDS011;5983;49.966;8.052;2022-12-18T09:56:31;22.77;;;14.37;;
11847;SDS011;5983;49.966;8.052;2022-12-18T09:59:04;28.40;;;17.17;;
11847;SDS011;5983;49.966;8.052;2022-12-18T10:01:31;24.50;;;14.13;;
11847;SDS011;5983;49.966;8.052;2022-12-18T10:03:59;24.90;;;14.93;;
11847;SDS011;5983;49.966;8.052;2022-12-18T10:06:27;24.90;;;16.83;;
11847;SDS011;5983;49.966;8.052;2022-12-18T10:09:02;22.87;;;16.20;;
11847;SDS011;5983;49.966;8.052;2022-12-18T10:11:38;27.10;;;16.60;;
11847;SDS011;5983;49.966;8.052;2022-12-18T10:14:14;21.90;;;15.07;;
11847;SDS011;5983;49.966;8.052;2022-12-18T10:16:54;25.17;;;17.70;;
11847;SDS011;5983;49.966;8.052;2022-12-18T10:19:36;25.47;;;18.10;;
11847;SDS011;5983;49.966;8.052;2022-12-18T10:22:16;25.13;;;16.77;;
11847;SDS011;5983;49.966;8.052;2022-12-18T10:24:58;21.83;;;15.37;;
11847;SDS011;5983;49.966;8.052;2022-12-18T10:27:32;25.53;;;16.93;;
11847;SDS011;5983;49.966;8.052;2022-12-18T10:29:59;25.93;;;17.07;;
11847;SDS011;5983;49.966;8.052;2022-12-18T10:32:38;26.57;;;17.07;;
11847;SDS011;5983;49.966;8.052;2022-12-18T10:35:08;25.13;;;16.43;;
11847;SDS011;5983;49.966;8.052;2022-12-18T10:38:01;28.00;;;17.27;;
11847;SDS011;5983;49.966;8.052;2022-12-18T10:40:33;23.47;;;15.03;;
11847;SDS011;5983;49.966;8.052;2022-12-18T10:43:19;25.97;;;15.90;;
11847;SDS011;5983;49.966;8.052;2022-12-18T10:45:58;22.43;;;14.97;;
11847;SDS011;5983;49.966;8.052;2022-12-18T10:48:29;26.30;;;15.70;;
11847;SDS011;5983;49.966;8.052;2022-12-18T10:50:57;25.33;;;15.77;;
11847;SDS011;5983;49.966;8.052;2022-12-18T10:53:27;23.70;;;14.33;;
11847;SDS011;5983;49.966;8.052;2022-12-18T10:55:58;26.20;;;16.43;;
11847;SDS011;5983;49.966;8.052;2022-12-18T10:58:26;28.27;;;15.97;;
11847;SDS011;5983;49.966;8.052;2022-12-18T11:01:09;25.53;;;15.17;;
11847;SDS011;5983;49.966;8.052;2022-12-18T11:03:40;24.80;;;14.77;;
11847;SDS011;5983;49.966;8.052;2022-12-18T11:06:10;23.77;;;15.57;;
11847;SDS011;5983;49.966;8.052;2022-12-18T11:08:40;25.43;;;17.10;;
11847;SDS011;5983;49.966;8.052;2022-12-18T11:11:17;25.00;;;15.23;;
11847;SDS011;5983;49.966;8.052;2022-12-18T11:13:54;24.43;;;15.17;;
11847;SDS011;5983;49.966;8.052;2022-12-18T11:16:28;22.90;;;14.70;;
11847;SDS011;5983;49.966;8.052;2022-12-18T11:19:12;25.10;;;15.57;;
11847;SDS011;5983;49.966;8.052;2022-12-18T11:21:49;25.77;;;16.50;;
11847;SDS011;5983;49.966;8.052;2022-12-18T11:24:21;27.23;;;16.80;;
11847;SDS011;5983;49.966;8.052;2022-12-18T11:26:56;23.50;;;15.87;;
11847;SDS011;5983;49.966;8.052;2022-12-18T11:29:31;30.03;;;16.13;;
11847;SDS011;5983;49.966;8.052;2022-12-18T11:32:12;24.63;;;15.93;;
11847;SDS011;5983;49.966;8.052;2022-12-18T11:35:02;29.70;;;17.23;;
11847;SDS011;5983;49.966;8.052;2022-12-18T11:37:41;27.87;;;16.67;;
11847;SDS011;5983;49.966;8.052;2022-12-18T11:40:14;29.07;;;16.87;;
11847;SDS011;5983;49.966;8.052;2022-12-18T11:42:50;29.73;;;17.50;;
11847;SDS011;5983;49.966;8.052;2022-12-18T11:45:25;26.97;;;16.13;;
11847;SDS011;5983;49.966;8.052;2022-12-18T11:48:01;27.47;;;16.13;;
11847;SDS011;5983;49.966;8.052;2022-12-18T11:50:39;27.70;;;17.20;;
11847;SDS011;5983;49.966;8.052;2022-12-18T11:53:13;34.47;;;21.60;;
11847;SDS011;5983;49.966;8.052;2022-12-18T11:55:41;79.30;;;44.43;;
11847;SDS011;5983;49.966;8.052;2022-12-18T11:58:24;61.90;;;34.93;;
11847;SDS011;5983;49.966;8.052;2022-12-18T12:01:07;113.53;;;59.50;;
11847;SDS011;5983;49.966;8.052;2022-12-18T12:04:00;56.43;;;34.83;;
11847;SDS011;5983;49.966;8.052;2022-12-18T12:06:56;31.13;;;18.30;;
11847;SDS011;5983;49.966;8.052;2022-12-18T12:09:38;28.27;;;16.17;;
11847;SDS011;5983;49.966;8.052;2022-12-18T12:12:20;29.90;;;16.50;;
11847;SDS011;5983;49.966;8.052;2022-12-18T12:15:13;26.67;;;16.37;;
11847;SDS011;5983;49.966;8.052;2022-12-18T12:18:00;27.17;;;16.33;;
11847;SDS011;5983;49.966;8.052;2022-12-18T12:20:42;27.57;;;15.50;;
11847;SDS011;5983;49.966;8.052;2022-12-18T12:23:22;28.77;;;16.43;;
11847;SDS011;5983;49.966;8.052;2022-12-18T12:26:01;25.57;;;15.37;;
11847;SDS011;5983;49.966;8.052;2022-12-18T12:28:39;29.97;;;16.17;;
11847;SDS011;5983;49.966;8.052;2022-12-18T12:31:56;27.07;;;15.90;;
11847;SDS011;5983;49.966;8.052;2022-12-18T12:34:45;27.03;;;17.47;;
11847;SDS011;5983;49.966;8.052;2022-12-18T12:37:25;31.83;;;17.27;;
11847;SDS011;5983;49.966;8.052;2022-12-18T12:40:06;29.17;;;16.93;;
11847;SDS011;5983;49.966;8.052;2022-12-18T12:42:39;32.23;;;18.13;;
11847;SDS011;5983;49.966;8.052;2022-12-18T12:45:33;33.83;;;17.70;;
11847;SDS011;5983;49.966;8.052;2022-12-18T12:48:10;26.70;;;16.43;;
11847;SDS011;5983;49.966;8.052;2022-12-18T12:50:50;29.00;;;17.23;;
11847;SDS011;5983;49.966;8.052;2022-12-18T12:53:22;26.40;;;16.23;;
11847;SDS011;5983;49.966;8.052;2022-12-18T12:55:54;27.63;;;16.10;;
11847;SDS011;5983;49.966;8.052;2022-12-18T12:58:26;31.80;;;18.13;;
11847;SDS011;5983;49.966;8.052;2022-12-18T13:01:14;30.60;;;16.30;;
11847;SDS011;5983;49.966;8.052;2022-12-18T13:03:56;29.10;;;16.07;;
11847;SDS011;5983;49.966;8.052;2022-12-18T13:06:37;30.10;;;18.27;;
11847;SDS011;5983;49.966;8.052;2022-12-18T13:09:12;28.57;;;16.00;;
11847;SDS011;5983;49.966;8.052;2022-12-18T13:11:40;33.40;;;18.47;;
11847;SDS011;5983;49.966;8.052;2022-12-18T13:14:28;34.57;;;17.67;;
11847;SDS011;5983;49.966;8.052;2022-12-18T13:20:05;33.27;;;17.37;;
11847;SDS011;5983;49.966;8.052;2022-12-18T13:22:37;32.07;;;18.23;;
11847;SDS011;5983;49.966;8.052;2022-12-18T13:25:31;34.33;;;17.50;;
11847;SDS011;5983;49.966;8.052;2022-12-18T13:28:05;28.73;;;16.07;;
11847;SDS011;5983;49.966;8.052;2022-12-18T13:30:46;32.07;;;17.80;;
11847;SDS011;5983;49.966;8.052;2022-12-18T13:33:36;32.70;;;18.60;;
11847;SDS011;5983;49.966;8.052;2022-12-18T13:36:15;32.93;;;18.37;;
11847;SDS011;5983;49.966;8.052;2022-12-18T13:45:37;30.67;;;16.40;;
11847;SDS011;5983;49.966;8.052;2022-12-18T13:48:16;33.77;;;17.43;;
11847;SDS011;5983;49.966;8.052;2022-12-18T13:50:49;31.20;;;17.53;;
11847;SDS011;5983;49.966;8.052;2022-12-18T13:53:26;32.60;;;18.27;;
11847;SDS011;5983;49.966;8.052;2022-12-18T13:55:58;32.73;;;18.43;;
11847;SDS011;5983;49.966;8.052;2022-12-18T13:58:26;43.03;;;18.17;;
11847;SDS011;5983;49.966;8.052;2022-12-18T14:00:53;34.37;;;18.30;;
11847;SDS011;5983;49.966;8.052;2022-12-18T14:03:21;38.80;;;20.10;;
11847;SDS011;5983;49.966;8.052;2022-12-18T14:05:54;34.37;;;17.80;;
11847;SDS011;5983;49.966;8.052;2022-12-18T14:08:29;34.13;;;18.07;;
11847;SDS011;5983;49.966;8.052;2022-12-18T14:11:04;32.60;;;16.67;;
11847;SDS011;5983;49.966;8.052;2022-12-18T14:13:33;36.50;;;18.33;;
11847;SDS011;5983;49.966;8.052;2022-12-18T14:16:05;34.67;;;18.97;;
11847;SDS011;5983;49.966;8.052;2022-12-18T14:18:36;31.97;;;17.17;;
11847;SDS011;5983;49.966;8.052;2022-12-18T14:21:18;33.83;;;17.80;;
11847;SDS011;5983;49.966;8.052;2022-12-18T14:23:50;35.53;;;17.87;;
11847;SDS011;5983;49.966;8.052;2022-12-18T14:26:32;36.00;;;17.63;;
11847;SDS011;5983;49.966;8.052;2022-12-18T14:29:00;28.70;;;16.67;;
11847;SDS011;5983;49.966;8.052;2022-12-18T14:31:45;35.53;;;17.17;;
11847;SDS011;5983;49.966;8.052;2022-12-18T14:34:29;32.33;;;17.17;;
11847;SDS011;5983;49.966;8.052;2022-12-18T14:36:56;35.13;;;17.43;;
11847;SDS011;5983;49.966;8.052;2022-12-18T14:39:25;39.00;;;18.13;;
11847;SDS011;5983;49.966;8.052;2022-12-18T14:41:52;32.73;;;16.53;;
11847;SDS011;5983;49.966;8.052;2022-12-18T14:44:19;37.03;;;19.27;;
11847;SDS011;5983;49.966;8.052;2022-12-18T14:46:47;36.33;;;19.47;;
11847;SDS011;5983;49.966;8.052;2022-12-18T14:49:21;37.83;;;17.37;;
11847;SDS011;5983;49.966;8.052;2022-12-18T14:51:56;36.80;;;18.73;;
11847;SDS011;5983;49.966;8.052;2022-12-18T14:54:29;42.10;;;20.30;;
11847;SDS011;5983;49.966;8.052;2022-12-18T14:56:59;39.17;;;19.00;;
11847;SDS011;5983;49.966;8.052;2022-12-18T14:59:30;38.17;;;20.03;;
11847;SDS011;5983;49.966;8.052;2022-12-18T15:02:00;38.00;;;19.43;;
11847;SDS011;5983;49.966;8.052;2022-12-18T15:04:37;37.73;;;19.77;;
11847;SDS011;5983;49.966;8.052;2022-12-18T15:07:09;41.97;;;20.53;;
11847;SDS011;5983;49.966;8.052;2022-12-18T15:09:43;34.27;;;17.33;;
11847;SDS011;5983;49.966;8.052;2022-12-18T15:12:32;37.10;;;17.37;;
11847;SDS011;5983;49.966;8.052;2022-12-18T15:15:02;34.27;;;17.03;;